Meteo Giornale » Osservazioni meteo Croazia » Pula Aerodrome

ore: 10:30 - Osservazioni Meteo Pula Aerodrome
Lat. 45° 54' N Lon. 13° 55' E Alt. 63 metri s.l.m.

coperto Europe/Zagreb

11 °C

Coperto

Temp. 24 Ore

1 °C

11 °C

Sud-Ovest

18.5 Km/h

Dew point 7 °C

Umidità 76 %

Visibilità  10 Km

Il sole sorge alle ore 07:39

Il sole tramonta alle ore 16:49

Data e Ora Cielo e Fenomeni T °C DP °C Um. % Pres. hPa Vis. km Vento km/h
Oggi h: 10:30 coperto Coperto 11 7 76 1010 10 SO 18.5
Oggi h: 09:30 coperto Coperto 11 7 76 1010 10 SO 20.3
Oggi h: 09:00 molto_nuvoloso Molto Nuvoloso 10 6 76 1011 10 SO 20.3
Oggi h: 08:30 molto_nuvoloso Molto Nuvoloso 10 6 76 1010 10 SO 20.3
Oggi h: 08:00 molto_nuvoloso Molto Nuvoloso 10 7 81 1011 10 SO 18.5
Oggi h: 07:30 molto_nuvoloso Molto Nuvoloso 11 7 76 1011 10 SO 22.2
Oggi h: 07:00 molto_nuvoloso Molto Nuvoloso 10 7 81 1011 10 SO 16.7
Oggi h: 06:30 molto_nuvoloso Molto Nuvoloso 10 6 76 1011 10 SO 13
Oggi h: 06:00 molto_nuvoloso Molto Nuvoloso 10 7 81 1012 10 SO 14.8
Oggi h: 05:30 molto_nuvoloso Molto Nuvoloso 10 6 76 1012 10 S/SO 13
Oggi h: 05:00 nuvoloso_piovaschi Debole Rovescio di Pioggia 10 6 76 1012 10 SO 16.7
Oggi h: 04:30 nuvoloso_piovaschi Debole Rovescio di Pioggia 9 7 87 1013 10 SO 16.7
Oggi h: 04:00 nuvoloso_piovaschi Debole Rovescio di Pioggia 10 6 76 1013 10 SO 18.5
Oggi h: 03:30 coperto Coperto 9 6 81 1013 10 S/SO 16.7
Oggi h: 03:00 nuvoloso_piovaschi Debole Rovescio di Pioggia 9 6 81 1014 10 S 9.3
Oggi h: 02:30 molto_nuvoloso Molto Nuvoloso 9 6 81 1015 10 S 11.1
Oggi h: 02:00 molto_nuvoloso Molto Nuvoloso 7 5 87 1015 10 N 5.5
Oggi h: 01:30 coperto_pioggia Pioggia Debole 6 4 86 1016 10 E 9.3
Oggi h: 01:00 molto_nuvoloso Molto Nuvoloso 5 3 86 1017 10 E/NE 7.4
Oggi h: 00:30 molto_nuvoloso Molto Nuvoloso 6 4 86 1017 10 N 5.5
Oggi h: 00:00 coperto Coperto 5 3 86 1018 10 N 5.5
Ieri h: 23:30 coperto Coperto 5 3 86 1018 10 N 3.7
Ieri h: 23:00 molto_nuvoloso Molto Nuvoloso 5 4 93 1019 10 N 3.7
Ieri h: 22:30 molto_nuvoloso Molto Nuvoloso 4 3 93 1019 10 N 3.7
Ieri h: 22:00 molto_nuvoloso Molto Nuvoloso 4 3 93 1019 10 N 5.5
Ieri h: 21:30 molto_nuvoloso Molto Nuvoloso 4 3 93 1019 10 N 5.5
Ieri h: 21:00 molto_nuvoloso Molto Nuvoloso 4 3 93 1020 10 N 0
Ieri h: 20:30 nuvoloso Nuvoloso 4 2 86 1019 10 N 3.7
Ieri h: 20:00 poco_nuvoloso Poco Nuvoloso 3 2 93 1019 10 NE 7.4
Ieri h: 19:30 poco_nuvoloso Poco Nuvoloso 1 -0 93 1020 10 N 3.7
Ieri h: 19:00 poco_nuvoloso Poco Nuvoloso 4 2 86 1020 10 N 3.7
Ieri h: 18:30 molto_nuvoloso Molto Nuvoloso 5 3 86 1020 10 N 3.7
Ieri h: 18:00 molto_nuvoloso Molto Nuvoloso 5 3 86 1021 10 N 5.5
Ieri h: 17:30 molto_nuvoloso Molto Nuvoloso 5 3 86 1021 10 N 3.7
Ieri h: 17:00 molto_nuvoloso Molto Nuvoloso 7 3 75 1021 10 N 5.5
Ieri h: 16:30 nuvoloso Nuvoloso 7 3 75 1021 10 S/SE 7.4
Ieri h: 16:00 molto_nuvoloso Molto Nuvoloso 8 3 70 1021 10 N 5.5
Ieri h: 15:30 molto_nuvoloso Molto Nuvoloso 8 3 70 1021 10 N 5.5
Ieri h: 15:00 nuvoloso Nuvoloso 8 3 70 1021 10 N 5.5
Ieri h: 14:30 nuvoloso Nuvoloso 8 2 65 1021 10 N 5.5
Ieri h: 14:00 poco_nuvoloso Poco Nuvoloso 8 2 65 1022 10 N 5.5
Ieri h: 13:30 nuvoloso Nuvoloso 8 2 65 1022 10 N 3.7
Ieri h: 13:00 molto_nuvoloso Molto Nuvoloso 8 2 65 1022 10 N 1.8
Ieri h: 12:30 molto_nuvoloso Molto Nuvoloso 8 2 65 1023 10 N 1.8
Ieri h: 12:00 molto_nuvoloso Molto Nuvoloso 8 2 65 1023 10 N 5.5
Ieri h: 11:30 molto_nuvoloso Molto Nuvoloso 8 2 65 1023 10 N 5.5
Ieri h: 11:00 molto_nuvoloso Molto Nuvoloso 7 1 65 1023 10 N 5.5
Ieri h: 10:30 molto_nuvoloso Molto Nuvoloso 6 1 70 1024 10 NE 7.4
Ieri h: 10:00 molto_nuvoloso Molto Nuvoloso 6 1 70 1023 10 E/NE 7.4